sensor_id;sensor_type;location;lat;lon;timestamp;pressure;altitude;pressure_sealevel;temperature;humidity
13422;BME280;6782;55.904;13.396;2023-10-19T00:01:14;100640.75;;;6.08;100.00
13422;BME280;6782;55.904;13.396;2023-10-19T00:04:05;100627.72;;;6.02;100.00
13422;BME280;6782;55.904;13.396;2023-10-19T00:06:54;100632.06;;;6.02;100.00
13422;BME280;6782;55.904;13.396;2023-10-19T00:09:42;100630.38;;;5.95;100.00
13422;BME280;6782;55.904;13.396;2023-10-19T00:12:32;100619.06;;;5.90;100.00
13422;BME280;6782;55.904;13.396;2023-10-19T00:15:20;100615.59;;;5.85;100.00
13422;BME280;6782;55.904;13.396;2023-10-19T00:18:10;100616.50;;;5.85;100.00
13422;BME280;6782;55.904;13.396;2023-10-19T00:21:09;100615.59;;;5.79;100.00
13422;BME280;6782;55.904;13.396;2023-10-19T00:24:07;100604.31;;;5.70;100.00
13422;BME280;6782;55.904;13.396;2023-10-19T00:26:55;100595.59;;;5.68;100.00
13422;BME280;6782;55.904;13.396;2023-10-19T00:29:42;100603.44;;;5.72;100.00
13422;BME280;6782;55.904;13.396;2023-10-19T00:32:34;100601.75;;;5.64;100.00
13422;BME280;6782;55.904;13.396;2023-10-19T00:35:24;100591.31;;;5.58;100.00
13422;BME280;6782;55.904;13.396;2023-10-19T00:38:20;100586.09;;;5.58;100.00
13422;BME280;6782;55.904;13.396;2023-10-19T00:41:26;100583.50;;;5.51;100.00
13422;BME280;6782;55.904;13.396;2023-10-19T00:44:15;100574.81;;;5.47;100.00
13422;BME280;6782;55.904;13.396;2023-10-19T00:47:10;100582.66;;;5.47;100.00
13422;BME280;6782;55.904;13.396;2023-10-19T00:49:59;100582.66;;;5.47;100.00
13422;BME280;6782;55.904;13.396;2023-10-19T00:52:50;100580.91;;;5.48;100.00
13422;BME280;6782;55.904;13.396;2023-10-19T00:55:38;100564.34;;;5.49;100.00
13422;BME280;6782;55.904;13.396;2023-10-19T00:58:31;100560.84;;;5.48;100.00
13422;BME280;6782;55.904;13.396;2023-10-19T01:01:25;100556.53;;;5.41;100.00
13422;BME280;6782;55.904;13.396;2023-10-19T01:04:14;100540.81;;;5.47;100.00
13422;BME280;6782;55.904;13.396;2023-10-19T01:07:06;100544.31;;;5.43;100.00
13422;BME280;6782;55.904;13.396;2023-10-19T01:09:59;100539.09;;;5.43;100.00
13422;BME280;6782;55.904;13.396;2023-10-19T01:12:49;100535.56;;;5.47;100.00
13422;BME280;6782;55.904;13.396;2023-10-19T01:15:38;100526.88;;;5.45;100.00
13422;BME280;6782;55.904;13.396;2023-10-19T01:18:26;100523.44;;;5.39;100.00
13422;BME280;6782;55.904;13.396;2023-10-19T01:21:15;100514.69;;;5.40;100.00
13422;BME280;6782;55.904;13.396;2023-10-19T01:24:08;100526.84;;;5.50;100.00
13422;BME280;6782;55.904;13.396;2023-10-19T01:26:58;100505.09;;;5.46;100.00
13422;BME280;6782;55.904;13.396;2023-10-19T01:29:46;100487.66;;;5.47;100.00
13422;BME280;6782;55.904;13.396;2023-10-19T01:32:37;100483.25;;;5.50;100.00
13422;BME280;6782;55.904;13.396;2023-10-19T01:35:25;100484.16;;;5.42;100.00
13422;BME280;6782;55.904;13.396;2023-10-19T01:38:12;100481.53;;;5.45;100.00
13422;BME280;6782;55.904;13.396;2023-10-19T01:41:02;100476.31;;;5.49;100.00
13422;BME280;6782;55.904;13.396;2023-10-19T01:43:53;100460.66;;;5.43;100.00
13422;BME280;6782;55.904;13.396;2023-10-19T01:46:40;100445.81;;;5.42;100.00
13422;BME280;6782;55.904;13.396;2023-10-19T01:49:29;100439.78;;;5.34;100.00
13422;BME280;6782;55.904;13.396;2023-10-19T01:52:16;100428.41;;;5.40;100.00
13422;BME280;6782;55.904;13.396;2023-10-19T01:55:04;100436.31;;;5.29;100.00
13422;BME280;6782;55.904;13.396;2023-10-19T01:57:56;100434.59;;;5.31;100.00
13422;BME280;6782;55.904;13.396;2023-10-19T02:00:45;100438.94;;;5.32;100.00
13422;BME280;6782;55.904;13.396;2023-10-19T02:03:31;100418.91;;;5.31;100.00
13422;BME280;6782;55.904;13.396;2023-10-19T02:06:19;100412.84;;;5.26;100.00
13422;BME280;6782;55.904;13.396;2023-10-19T02:09:09;100406.72;;;5.24;100.00
13422;BME280;6782;55.904;13.396;2023-10-19T02:11:56;100401.50;;;5.27;100.00
13422;BME280;6782;55.904;13.396;2023-10-19T02:14:45;100385.91;;;5.15;100.00
13422;BME280;6782;55.904;13.396;2023-10-19T02:17:32;100380.69;;;5.12;100.00
13422;BME280;6782;55.904;13.396;2023-10-19T02:20:19;100381.50;;;5.20;100.00
13422;BME280;6782;55.904;13.396;2023-10-19T02:23:10;100374.53;;;5.19;100.00
13422;BME280;6782;55.904;13.396;2023-10-19T02:25:59;100361.47;;;5.19;100.00
13422;BME280;6782;55.904;13.396;2023-10-19T02:28:45;100359.69;;;5.24;100.00
13422;BME280;6782;55.904;13.396;2023-10-19T02:31:37;100352.78;;;5.17;100.00
13422;BME280;6782;55.904;13.396;2023-10-19T02:34:25;100357.19;;;5.11;100.00
13422;BME280;6782;55.904;13.396;2023-10-19T02:37:13;100342.31;;;5.17;100.00
13422;BME280;6782;55.904;13.396;2023-10-19T02:40:02;100333.66;;;5.09;100.00
13422;BME280;6782;55.904;13.396;2023-10-19T02:42:59;100323.19;;;5.12;100.00
13422;BME280;6782;55.904;13.396;2023-10-19T02:45:49;100319.78;;;5.04;100.00
13422;BME280;6782;55.904;13.396;2023-10-19T02:48:37;100320.66;;;5.01;100.00
13422;BME280;6782;55.904;13.396;2023-10-19T02:51:30;100337.19;;;5.05;100.00
13422;BME280;6782;55.904;13.396;2023-10-19T02:54:17;100324.97;;;5.07;100.00
13422;BME280;6782;55.904;13.396;2023-10-19T02:57:05;100332.00;;;5.02;100.00
13422;BME280;6782;55.904;13.396;2023-10-19T02:59:52;100323.22;;;5.06;100.00
13422;BME280;6782;55.904;13.396;2023-10-19T03:02:40;100318.97;;;4.96;100.00
13422;BME280;6782;55.904;13.396;2023-10-19T03:05:28;100325.03;;;5.02;100.00
13422;BME280;6782;55.904;13.396;2023-10-19T03:08:15;100305.84;;;5.02;100.00
13422;BME280;6782;55.904;13.396;2023-10-19T03:11:02;100303.28;;;4.96;100.00
13422;BME280;6782;55.904;13.396;2023-10-19T03:13:51;100297.28;;;4.85;100.00
13422;BME280;6782;55.904;13.396;2023-10-19T03:16:37;100295.53;;;4.84;100.00
13422;BME280;6782;55.904;13.396;2023-10-19T03:19:27;100288.56;;;4.83;100.00
13422;BME280;6782;55.904;13.396;2023-10-19T03:22:17;100286.84;;;4.82;100.00
13422;BME280;6782;55.904;13.396;2023-10-19T03:25:06;100290.31;;;4.84;100.00
13422;BME280;6782;55.904;13.396;2023-10-19T03:28:21;100278.13;;;4.84;100.00
13422;BME280;6782;55.904;13.396;2023-10-19T03:31:11;100272.97;;;4.74;100.00
13422;BME280;6782;55.904;13.396;2023-10-19T03:34:03;100276.44;;;4.76;100.00
13422;BME280;6782;55.904;13.396;2023-10-19T03:36:52;100281.69;;;4.73;100.00
13422;BME280;6782;55.904;13.396;2023-10-19T03:39:42;100280.84;;;4.72;100.00
13422;BME280;6782;55.904;13.396;2023-10-19T03:42:31;100281.63;;;4.82;100.00
13422;BME280;6782;55.904;13.396;2023-10-19T03:45:19;100279.00;;;4.83;100.00
13422;BME280;6782;55.904;13.396;2023-10-19T03:48:09;100286.84;;;4.80;100.00
13422;BME280;6782;55.904;13.396;2023-10-19T03:50:58;100285.09;;;4.84;100.00
13422;BME280;6782;55.904;13.396;2023-10-19T03:53:47;100281.56;;;4.91;100.00
13422;BME280;6782;55.904;13.396;2023-10-19T03:56:42;100290.34;;;4.81;100.00
13422;BME280;6782;55.904;13.396;2023-10-19T03:59:29;100300.72;;;4.90;100.00
13422;BME280;6782;55.904;13.396;2023-10-19T04:02:20;100298.16;;;4.84;100.00
13422;BME280;6782;55.904;13.396;2023-10-19T04:05:09;100305.97;;;4.90;100.00
13422;BME280;6782;55.904;13.396;2023-10-19T04:08:06;100308.50;;;4.96;100.00
13422;BME280;6782;55.904;13.396;2023-10-19T04:10:58;100299.00;;;4.90;100.00
13422;BME280;6782;55.904;13.396;2023-10-19T04:13:59;100306.78;;;4.98;100.00
13422;BME280;6782;55.904;13.396;2023-10-19T04:16:49;100300.66;;;4.99;100.00
13422;BME280;6782;55.904;13.396;2023-10-19T04:19:36;100289.44;;;4.86;100.00
13422;BME280;6782;55.904;13.396;2023-10-19T04:22:24;100299.84;;;4.91;100.00
13422;BME280;6782;55.904;13.396;2023-10-19T04:25:12;100300.72;;;4.93;100.00
13422;BME280;6782;55.904;13.396;2023-10-19T04:28:01;100312.84;;;5.00;100.00
13422;BME280;6782;55.904;13.396;2023-10-19T04:30:50;100308.44;;;5.03;100.00
13422;BME280;6782;55.904;13.396;2023-10-19T04:33:38;100304.09;;;5.04;100.00
13422;BME280;6782;55.904;13.396;2023-10-19T04:36:28;100311.91;;;5.07;100.00
13422;BME280;6782;55.904;13.396;2023-10-19T04:39:16;100311.03;;;5.08;100.00
13422;BME280;6782;55.904;13.396;2023-10-19T04:42:05;100307.56;;;5.04;100.00
13422;BME280;6782;55.904;13.396;2023-10-19T04:44:52;100311.03;;;5.08;100.00
13422;BME280;6782;55.904;13.396;2023-10-19T04:47:41;100300.59;;;5.05;100.00
13422;BME280;6782;55.904;13.396;2023-10-19T04:50:28;100301.47;;;5.05;100.00
13422;BME280;6782;55.904;13.396;2023-10-19T04:53:16;100304.06;;;5.10;100.00
13422;BME280;6782;55.904;13.396;2023-10-19T04:56:06;100314.41;;;5.21;100.00
13422;BME280;6782;55.904;13.396;2023-10-19T04:58:55;100316.16;;;5.20;100.00
13422;BME280;6782;55.904;13.396;2023-10-19T05:01:42;100315.31;;;5.18;100.00
13422;BME280;6782;55.904;13.396;2023-10-19T05:04:31;100310.97;;;5.17;100.00
13422;BME280;6782;55.904;13.396;2023-10-19T05:07:19;100315.31;;;5.18;100.00
13422;BME280;6782;55.904;13.396;2023-10-19T05:10:07;100310.97;;;5.14;100.00
13422;BME280;6782;55.904;13.396;2023-10-19T05:12:54;100304.94;;;5.11;100.00
13422;BME280;6782;55.904;13.396;2023-10-19T05:15:41;100308.38;;;5.11;100.00
13422;BME280;6782;55.904;13.396;2023-10-19T05:18:29;100305.81;;;5.08;100.00
13422;BME280;6782;55.904;13.396;2023-10-19T05:21:18;100308.44;;;5.08;100.00
13422;BME280;6782;55.904;13.396;2023-10-19T05:24:06;100305.81;;;5.08;100.00
13422;BME280;6782;55.904;13.396;2023-10-19T05:26:54;100301.41;;;5.13;100.00
13422;BME280;6782;55.904;13.396;2023-10-19T05:29:41;100303.16;;;5.13;100.00
13422;BME280;6782;55.904;13.396;2023-10-19T05:32:28;100298.84;;;5.07;100.00
13422;BME280;6782;55.904;13.396;2023-10-19T05:35:16;100296.16;;;5.15;100.00
13422;BME280;6782;55.904;13.396;2023-10-19T05:38:10;100298.78;;;5.15;100.00
13422;BME280;6782;55.904;13.396;2023-10-19T05:40:57;100305.72;;;5.17;100.00
13422;BME280;6782;55.904;13.396;2023-10-19T05:43:45;100310.03;;;5.23;100.00
13422;BME280;6782;55.904;13.396;2023-10-19T05:46:32;100311.78;;;5.22;100.00
13422;BME280;6782;55.904;13.396;2023-10-19T05:49:20;100323.91;;;5.29;100.00
13422;BME280;6782;55.904;13.396;2023-10-19T05:52:07;100324.81;;;5.28;100.00
13422;BME280;6782;55.904;13.396;2023-10-19T05:54:55;100324.84;;;5.25;100.00
13422;BME280;6782;55.904;13.396;2023-10-19T05:57:43;100333.47;;;5.36;100.00
13422;BME280;6782;55.904;13.396;2023-10-19T06:00:30;100328.28;;;5.27;100.00
13422;BME280;6782;55.904;13.396;2023-10-19T06:03:17;100329.97;;;5.34;100.00
13422;BME280;6782;55.904;13.396;2023-10-19T06:06:05;100319.50;;;5.34;100.00
13422;BME280;6782;55.904;13.396;2023-10-19T06:08:52;100321.28;;;5.32;100.00
13422;BME280;6782;55.904;13.396;2023-10-19T06:11:41;100320.44;;;5.27;100.00
13422;BME280;6782;55.904;13.396;2023-10-19T06:14:29;100329.09;;;5.35;100.00
13422;BME280;6782;55.904;13.396;2023-10-19T06:17:16;100327.34;;;5.39;100.00
13422;BME280;6782;55.904;13.396;2023-10-19T06:20:06;100334.31;;;5.35;100.00
13422;BME280;6782;55.904;13.396;2023-10-19T06:22:56;100328.16;;;5.42;100.00
13422;BME280;6782;55.904;13.396;2023-10-19T06:25:49;100330.81;;;5.38;100.00
13422;BME280;6782;55.904;13.396;2023-10-19T06:28:39;100319.47;;;5.37;100.00
13422;BME280;6782;55.904;13.396;2023-10-19T06:31:26;100324.66;;;5.46;100.00
13422;BME280;6782;55.904;13.396;2023-10-19T06:34:14;100325.53;;;5.47;100.00
13422;BME280;6782;55.904;13.396;2023-10-19T06:37:03;100315.16;;;5.36;100.00
13422;BME280;6782;55.904;13.396;2023-10-19T06:39:53;100320.31;;;5.42;100.00
13422;BME280;6782;55.904;13.396;2023-10-19T06:42:40;100307.22;;;5.45;100.00
13422;BME280;6782;55.904;13.396;2023-10-19T06:45:29;100310.66;;;5.47;100.00
13422;BME280;6782;55.904;13.396;2023-10-19T06:48:17;100307.06;;;5.57;100.00
13422;BME280;6782;55.904;13.396;2023-10-19T06:51:04;100297.44;;;5.62;100.00
13422;BME280;6782;55.904;13.396;2023-10-19T06:53:52;100295.59;;;5.72;100.00
13422;BME280;6782;55.904;13.396;2023-10-19T06:56:39;100289.56;;;5.65;100.00
13422;BME280;6782;55.904;13.396;2023-10-19T06:59:27;100279.91;;;5.70;100.00
13422;BME280;6782;55.904;13.396;2023-10-19T07:02:17;100282.50;;;5.74;100.00
13422;BME280;6782;55.904;13.396;2023-10-19T07:05:07;100274.56;;;5.83;100.00
13422;BME280;6782;55.904;13.396;2023-10-19T07:07:56;100271.88;;;5.89;100.00
13422;BME280;6782;55.904;13.396;2023-10-19T07:10:45;100276.19;;;5.94;100.00
13422;BME280;6782;55.904;13.396;2023-10-19T07:13:32;100264.81;;;5.97;100.00
13422;BME280;6782;55.904;13.396;2023-10-19T07:16:20;100259.47;;;6.06;100.00
13422;BME280;6782;55.904;13.396;2023-10-19T07:19:08;100246.38;;;6.04;100.00
13422;BME280;6782;55.904;13.396;2023-10-19T07:21:56;100248.09;;;6.07;100.00
13422;BME280;6782;55.904;13.396;2023-10-19T07:24:44;100234.94;;;6.11;100.00
13422;BME280;6782;55.904;13.396;2023-10-19T07:27:31;100227.13;;;6.10;100.00
13422;BME280;6782;55.904;13.396;2023-10-19T07:30:20;100230.47;;;6.19;100.00
13422;BME280;6782;55.904;13.396;2023-10-19T07:33:08;100215.63;;;6.20;100.00
13422;BME280;6782;55.904;13.396;2023-10-19T07:35:57;100215.63;;;6.20;100.00
13422;BME280;6782;55.904;13.396;2023-10-19T07:38:46;100206.84;;;6.24;100.00
13422;BME280;6782;55.904;13.396;2023-10-19T07:41:34;100213.75;;;6.31;100.00
13422;BME280;6782;55.904;13.396;2023-10-19T07:44:22;100206.75;;;6.32;100.00
13422;BME280;6782;55.904;13.396;2023-10-19T07:47:10;100212.78;;;6.37;100.00
13422;BME280;6782;55.904;13.396;2023-10-19T07:49:57;100211.97;;;6.33;100.00
13422;BME280;6782;55.904;13.396;2023-10-19T07:52:49;100205.84;;;6.32;100.00
13422;BME280;6782;55.904;13.396;2023-10-19T07:55:36;100198.88;;;6.33;100.00
13422;BME280;6782;55.904;13.396;2023-10-19T07:58:24;100196.16;;;6.39;100.00
13422;BME280;6782;55.904;13.396;2023-10-19T08:01:12;100196.09;;;6.42;100.00
13422;BME280;6782;55.904;13.396;2023-10-19T08:04:01;100190.00;;;6.42;100.00
13422;BME280;6782;55.904;13.396;2023-10-19T08:06:48;100193.31;;;6.53;100.00
13422;BME280;6782;55.904;13.396;2023-10-19T08:09:37;100180.25;;;6.51;100.00
13422;BME280;6782;55.904;13.396;2023-10-19T08:12:24;100173.31;;;6.47;100.00
13422;BME280;6782;55.904;13.396;2023-10-19T08:15:12;100178.47;;;6.53;100.00
13422;BME280;6782;55.904;13.396;2023-10-19T08:18:01;100164.44;;;6.57;100.00
13422;BME280;6782;55.904;13.396;2023-10-19T08:20:48;100167.16;;;6.51;100.00
13422;BME280;6782;55.904;13.396;2023-10-19T08:23:36;100164.38;;;6.60;100.00
13422;BME280;6782;55.904;13.396;2023-10-19T08:26:25;100167.81;;;6.64;100.00
13422;BME280;6782;55.904;13.396;2023-10-19T08:29:12;100152.19;;;6.59;100.00
13422;BME280;6782;55.904;13.396;2023-10-19T08:31:59;100150.41;;;6.61;100.00
13422;BME280;6782;55.904;13.396;2023-10-19T08:34:46;100160.69;;;6.70;100.00
13422;BME280;6782;55.904;13.396;2023-10-19T08:37:33;100153.75;;;6.69;100.00
13422;BME280;6782;55.904;13.396;2023-10-19T08:40:21;100151.25;;;6.62;100.00
13422;BME280;6782;55.904;13.396;2023-10-19T08:43:11;100137.25;;;6.64;100.00
13422;BME280;6782;55.904;13.396;2023-10-19T08:45:59;100141.56;;;6.65;100.00
13422;BME280;6782;55.904;13.396;2023-10-19T08:48:47;100138.03;;;6.69;100.00
13422;BME280;6782;55.904;13.396;2023-10-19T08:51:35;100139.66;;;6.76;100.00
13422;BME280;6782;55.904;13.396;2023-10-19T08:54:23;100134.31;;;6.81;100.00
13422;BME280;6782;55.904;13.396;2023-10-19T08:57:11;100129.34;;;6.67;100.00
13422;BME280;6782;55.904;13.396;2023-10-19T09:00:01;100125.72;;;6.74;100.00
13422;BME280;6782;55.904;13.396;2023-10-19T09:02:52;100128.06;;;6.89;100.00
13422;BME280;6782;55.904;13.396;2023-10-19T09:05:40;100125.25;;;6.99;100.00
13422;BME280;6782;55.904;13.396;2023-10-19T09:08:28;100122.78;;;6.91;100.00
13422;BME280;6782;55.904;13.396;2023-10-19T09:11:24;100108.97;;;6.83;100.00
13422;BME280;6782;55.904;13.396;2023-10-19T09:14:11;100100.38;;;6.73;100.00
13422;BME280;6782;55.904;13.396;2023-10-19T09:17:00;100111.66;;;6.78;100.00
13422;BME280;6782;55.904;13.396;2023-10-19T09:19:49;100092.75;;;6.61;100.00
13422;BME280;6782;55.904;13.396;2023-10-19T09:22:36;100096.28;;;6.59;100.00
13422;BME280;6782;55.904;13.396;2023-10-19T09:25:30;100097.81;;;6.70;100.00
13422;BME280;6782;55.904;13.396;2023-10-19T09:28:18;100098.78;;;6.66;100.00
13422;BME280;6782;55.904;13.396;2023-10-19T09:31:06;100096.25;;;6.60;100.00
13422;BME280;6782;55.904;13.396;2023-10-19T09:33:57;100101.44;;;6.63;100.00
13422;BME280;6782;55.904;13.396;2023-10-19T09:36:45;100104.81;;;6.71;100.00
13422;BME280;6782;55.904;13.396;2023-10-19T09:39:32;100100.53;;;6.67;100.00
13422;BME280;6782;55.904;13.396;2023-10-19T09:42:22;100113.44;;;6.76;100.00
13422;BME280;6782;55.904;13.396;2023-10-19T09:45:12;100117.91;;;6.71;100.00
13422;BME280;6782;55.904;13.396;2023-10-19T09:48:01;100103.19;;;6.64;100.00
13422;BME280;6782;55.904;13.396;2023-10-19T09:50:53;100092.72;;;6.64;100.00
13422;BME280;6782;55.904;13.396;2023-10-19T09:53:42;100103.84;;;6.75;100.00
13422;BME280;6782;55.904;13.396;2023-10-19T09:56:35;100111.59;;;6.81;100.00
13422;BME280;6782;55.904;13.396;2023-10-19T09:59:28;100099.50;;;6.74;100.00
13422;BME280;6782;55.904;13.396;2023-10-19T10:02:16;100086.50;;;6.70;100.00
13422;BME280;6782;55.904;13.396;2023-10-19T10:05:05;100084.47;;;6.84;100.00
13422;BME280;6782;55.904;13.396;2023-10-19T10:08:32;100076.41;;;6.94;100.00
13422;BME280;6782;55.904;13.396;2023-10-19T10:11:24;100054.41;;;7.03;100.00
13422;BME280;6782;55.904;13.396;2023-10-19T10:14:21;100050.09;;;7.01;100.00
13422;BME280;6782;55.904;13.396;2023-10-19T10:17:16;100039.78;;;6.91;100.00
13422;BME280;6782;55.904;13.396;2023-10-19T10:20:30;100036.06;;;7.02;100.00
13422;BME280;6782;55.904;13.396;2023-10-19T10:23:20;100030.88;;;6.99;100.00
13422;BME280;6782;55.904;13.396;2023-10-19T10:26:14;100039.47;;;7.07;100.00
13422;BME280;6782;55.904;13.396;2023-10-19T10:29:13;100026.66;;;6.93;100.00
13422;BME280;6782;55.904;13.396;2023-10-19T10:32:05;100024.03;;;6.91;100.00
13422;BME280;6782;55.904;13.396;2023-10-19T10:34:55;100031.66;;;7.04;100.00
13422;BME280;6782;55.904;13.396;2023-10-19T10:37:53;100018.38;;;6.70;100.00
13422;BME280;6782;55.904;13.396;2023-10-19T10:40:45;100017.38;;;6.75;100.00
13422;BME280;6782;55.904;13.396;2023-10-19T10:43:48;100036.38;;;6.86;100.00
13422;BME280;6782;55.904;13.396;2023-10-19T10:46:36;100015.78;;;6.68;100.00
13422;BME280;6782;55.904;13.396;2023-10-19T10:49:27;100021.72;;;6.76;100.00
13422;BME280;6782;55.904;13.396;2023-10-19T10:52:23;100030.97;;;6.96;100.00
13422;BME280;6782;55.904;13.396;2023-10-19T10:55:13;100024.28;;;6.79;100.00
13422;BME280;6782;55.904;13.396;2023-10-19T10:58:01;100030.56;;;6.72;100.00
13422;BME280;6782;55.904;13.396;2023-10-19T11:00:49;100019.16;;;6.73;100.00
13422;BME280;6782;55.904;13.396;2023-10-19T11:03:37;100005.97;;;6.78;100.00
13422;BME280;6782;55.904;13.396;2023-10-19T11:06:24;100024.09;;;6.88;100.00
13422;BME280;6782;55.904;13.396;2023-10-19T11:09:12;100004.88;;;6.89;100.00
13422;BME280;6782;55.904;13.396;2023-10-19T11:12:10;99995.53;;;6.76;100.00
13422;BME280;6782;55.904;13.396;2023-10-19T11:14:59;99988.63;;;6.72;100.00
13422;BME280;6782;55.904;13.396;2023-10-19T11:17:48;99986.06;;;6.69;100.00
13422;BME280;6782;55.904;13.396;2023-10-19T11:20:35;99985.94;;;6.75;100.00
13422;BME280;6782;55.904;13.396;2023-10-19T11:23:34;99987.78;;;6.70;100.00
13422;BME280;6782;55.904;13.396;2023-10-19T11:26:23;99984.47;;;6.61;100.00
13422;BME280;6782;55.904;13.396;2023-10-19T11:29:16;99979.41;;;6.53;100.00
13422;BME280;6782;55.904;13.396;2023-10-19T11:32:04;99976.63;;;6.61;100.00
13422;BME280;6782;55.904;13.396;2023-10-19T11:34:54;99997.47;;;6.65;100.00
13422;BME280;6782;55.904;13.396;2023-10-19T11:37:46;99994.09;;;6.62;100.00
13422;BME280;6782;55.904;13.396;2023-10-19T11:40:33;99996.59;;;6.66;100.00
13422;BME280;6782;55.904;13.396;2023-10-19T11:43:20;100002.03;;;6.57;100.00
13422;BME280;6782;55.904;13.396;2023-10-19T11:46:08;100016.06;;;6.53;100.00
13422;BME280;6782;55.904;13.396;2023-10-19T11:48:55;100004.75;;;6.51;100.00
13422;BME280;6782;55.904;13.396;2023-10-19T11:51:43;100017.91;;;6.48;100.00
13422;BME280;6782;55.904;13.396;2023-10-19T11:54:30;100016.16;;;6.47;100.00
13422;BME280;6782;55.904;13.396;2023-10-19T11:57:18;100017.75;;;6.57;100.00
13422;BME280;6782;55.904;13.396;2023-10-19T12:00:06;100015.91;;;6.62;100.00
13422;BME280;6782;55.904;13.396;2023-10-19T12:02:55;99999.22;;;6.66;100.00
13422;BME280;6782;55.904;13.396;2023-10-19T12:05:42;99994.72;;;6.73;100.00
13422;BME280;6782;55.904;13.396;2023-10-19T12:08:31;99973.63;;;6.80;100.00
13422;BME280;6782;55.904;13.396;2023-10-19T12:11:18;99956.78;;;6.92;100.00
13422;BME280;6782;55.904;13.396;2023-10-19T12:14:07;99954.09;;;6.93;100.00
13422;BME280;6782;55.904;13.396;2023-10-19T12:16:57;99927.06;;;6.91;100.00
13422;BME280;6782;55.904;13.396;2023-10-19T12:19:46;99915.69;;;6.92;100.00
13422;BME280;6782;55.904;13.396;2023-10-19T12:22:33;99917.28;;;7.00;100.00
13422;BME280;6782;55.904;13.396;2023-10-19T12:25:25;99896.25;;;7.03;100.00
13422;BME280;6782;55.904;13.396;2023-10-19T12:28:15;99876.97;;;7.04;100.00
13422;BME280;6782;55.904;13.396;2023-10-19T12:31:02;99852.38;;;7.11;100.00
13422;BME280;6782;55.904;13.396;2023-10-19T12:33:51;99845.34;;;7.13;100.00
13422;BME280;6782;55.904;13.396;2023-10-19T12:36:38;99809.44;;;7.15;100.00
13422;BME280;6782;55.904;13.396;2023-10-19T12:39:26;99784.16;;;7.14;100.00
13422;BME280;6782;55.904;13.396;2023-10-19T12:42:30;99773.34;;;7.26;100.00
13422;BME280;6782;55.904;13.396;2023-10-19T12:45:17;99759.22;;;7.30;100.00
13422;BME280;6782;55.904;13.396;2023-10-19T12:48:06;99724.47;;;7.22;100.00
13422;BME280;6782;55.904;13.396;2023-10-19T12:50:53;99686.97;;;7.20;100.00
13422;BME280;6782;55.904;13.396;2023-10-19T12:53:41;99649.44;;;7.18;100.00
13422;BME280;6782;55.904;13.396;2023-10-19T12:56:28;99609.53;;;7.07;100.00
13422;BME280;6782;55.904;13.396;2023-10-19T12:59:21;99588.50;;;7.10;100.00
13422;BME280;6782;55.904;13.396;2023-10-19T13:02:08;99582.91;;;7.22;100.00
13422;BME280;6782;55.904;13.396;2023-10-19T13:04:55;99568.03;;;7.22;100.00
13422;BME280;6782;55.904;13.396;2023-10-19T13:07:45;99543.75;;;7.16;100.00
13422;BME280;6782;55.904;13.396;2023-10-19T13:10:33;99568.97;;;7.20;100.00
13422;BME280;6782;55.904;13.396;2023-10-19T13:13:22;99544.66;;;7.15;100.00
13422;BME280;6782;55.904;13.396;2023-10-19T13:16:11;99502.84;;;7.10;100.00
13422;BME280;6782;55.904;13.396;2023-10-19T13:18:59;99497.59;;;7.10;100.00
13422;BME280;6782;55.904;13.396;2023-10-19T13:21:54;99453.44;;;6.97;100.00
13422;BME280;6782;55.904;13.396;2023-10-19T13:24:44;99452.47;;;7.01;100.00
13422;BME280;6782;55.904;13.396;2023-10-19T13:27:31;99427.88;;;7.05;100.00
13422;BME280;6782;55.904;13.396;2023-10-19T13:30:19;99420.81;;;7.07;100.00
13422;BME280;6782;55.904;13.396;2023-10-19T13:33:10;99374.81;;;6.97;100.00
13422;BME280;6782;55.904;13.396;2023-10-19T13:35:59;99371.94;;;7.06;100.00
13422;BME280;6782;55.904;13.396;2023-10-19T13:38:46;99338.66;;;7.08;100.00
13422;BME280;6782;55.904;13.396;2023-10-19T13:41:33;99313.31;;;7.08;100.00
13422;BME280;6782;55.904;13.396;2023-10-19T13:44:21;99304.84;;;7.00;100.00
13422;BME280;6782;55.904;13.396;2023-10-19T13:47:09;99302.47;;;6.92;100.00
13422;BME280;6782;55.904;13.396;2023-10-19T13:49:59;99301.53;;;6.93;100.00
13422;BME280;6782;55.904;13.396;2023-10-19T13:52:46;99340.41;;;7.09;100.00
13422;BME280;6782;55.904;13.396;2023-10-19T13:55:35;99313.59;;;6.99;100.00
13422;BME280;6782;55.904;13.396;2023-10-19T13:58:22;99292.72;;;6.96;100.00
13422;BME280;6782;55.904;13.396;2023-10-19T14:01:11;99300.47;;;7.01;100.00
13422;BME280;6782;55.904;13.396;2023-10-19T14:03:58;99268.31;;;6.96;100.00
13422;BME280;6782;55.904;13.396;2023-10-19T14:06:48;99251.75;;;6.93;100.00
13422;BME280;6782;55.904;13.396;2023-10-19T14:09:36;99213.53;;;6.88;100.00
13422;BME280;6782;55.904;13.396;2023-10-19T14:12:24;99208.63;;;6.77;100.00
13422;BME280;6782;55.904;13.396;2023-10-19T14:15:13;99173.75;;;6.75;100.00
13422;BME280;6782;55.904;13.396;2023-10-19T14:18:00;99123.28;;;6.70;100.00
13422;BME280;6782;55.904;13.396;2023-10-19T14:20:48;99109.88;;;6.79;100.00
13422;BME280;6782;55.904;13.396;2023-10-19T14:23:36;99073.25;;;6.78;100.00
13422;BME280;6782;55.904;13.396;2023-10-19T14:26:27;99027.50;;;6.63;100.00
13422;BME280;6782;55.904;13.396;2023-10-19T14:29:14;99052.00;;;6.62;100.00
13422;BME280;6782;55.904;13.396;2023-10-19T14:32:02;99112.06;;;6.67;100.00
13422;BME280;6782;55.904;13.396;2023-10-19T14:34:49;99038.81;;;6.64;100.00
13422;BME280;6782;55.904;13.396;2023-10-19T14:37:38;99001.25;;;6.65;100.00
13422;BME280;6782;55.904;13.396;2023-10-19T14:40:28;99039.63;;;6.66;100.00
13422;BME280;6782;55.904;13.396;2023-10-19T14:43:15;99053.69;;;6.63;100.00
13422;BME280;6782;55.904;13.396;2023-10-19T14:46:05;99098.44;;;6.57;100.00
13422;BME280;6782;55.904;13.396;2023-10-19T14:48:53;99140.44;;;6.54;100.00